Time;durP1;ratioP1;P1;durP2;ratioP2;P2;SDS_P1;SDS_P2;PMS_P1;PMS_P2;Temp;Humidity;BMP_temperature;BMP_pressure;BME280_temperature;BME280_humidity;BME280_pressure;Samples;Min_cycle;Max_cycle;Signal;HPM_P1;HPM_P2
2022/06/11 00:01:12;;;;;;;0.70;0.30;;;;;;;25.41;37.05;99651.19;5059117;28;20139;-71
2022/06/11 00:03:38;;;;;;;0.40;0.30;;;;;;;25.41;37.50;99645.59;5052226;28;20091;-71
2022/06/11 00:06:04;;;;;;;0.30;0.22;;;;;;;25.41;37.28;99646.41;5057990;28;20037;-71
2022/06/11 00:08:30;;;;;;;0.20;0.20;;;;;;;25.37;37.35;99654.03;5058361;28;20052;-70
2022/06/11 00:10:56;;;;;;;0.28;0.28;;;;;;;25.36;37.31;99651.59;5069812;28;20404;-70
2022/06/11 00:13:22;;;;;;;0.88;0.40;;;;;;;25.37;37.07;99650.41;5052432;28;20521;-71
2022/06/11 00:15:53;;;;;;;0.40;0.20;;;;;;;25.36;37.39;99646.00;5051059;28;20052;-71
2022/06/11 00:18:20;;;;;;;0.55;0.30;;;;;;;25.35;37.38;99653.59;5062774;28;20041;-71
2022/06/11 00:20:45;;;;;;;0.10;0.10;;;;;;;25.35;37.33;99655.59;5052867;28;20080;-70
2022/06/11 00:23:12;;;;;;;0.38;0.38;;;;;;;25.32;37.08;99651.59;5065666;28;20064;-70
2022/06/11 00:25:38;;;;;;;0.20;0.20;;;;;;;25.32;37.04;99660.00;5068737;28;20680;-69
2022/06/11 00:28:05;;;;;;;0.32;0.30;;;;;;;25.32;36.94;99651.59;5051064;28;20056;-70
2022/06/11 00:30:31;;;;;;;0.60;0.30;;;;;;;25.31;36.83;99650.00;5049597;28;20468;-70
2022/06/11 00:32:56;;;;;;;0.68;0.40;;;;;;;25.31;37.16;99655.63;5046852;28;20186;-70
2022/06/11 00:35:26;;;;;;;0.73;0.40;;;;;;;25.31;37.03;99663.22;5054068;28;20056;-70
2022/06/11 00:37:53;;;;;;;0.30;0.30;;;;;;;25.32;37.15;99656.41;5053528;28;20139;-69
2022/06/11 00:40:22;;;;;;;0.50;0.30;;;;;;;25.31;37.17;99652.81;5055897;28;20053;-69
2022/06/11 00:42:48;;;;;;;0.30;0.20;;;;;;;25.32;37.14;99656.41;5051291;28;20048;-69
2022/06/11 00:45:25;;;;;;;0.20;0.20;;;;;;;25.29;37.12;99654.41;5053080;28;20379;-69
2022/06/11 00:48:00;;;;;;;0.43;0.20;;;;;;;25.27;37.03;99648.41;5048207;28;20049;-70
2022/06/11 00:50:39;;;;;;;0.70;0.28;;;;;;;25.27;37.31;99651.19;5051770;28;20224;-70
2022/06/11 00:53:14;;;;;;;0.20;0.20;;;;;;;25.25;36.92;99646.81;5047628;28;20045;-71
2022/06/11 00:55:42;;;;;;;0.45;0.40;;;;;;;25.25;37.26;99649.59;5046453;28;20044;-71
2022/06/11 00:58:15;;;;;;;0.30;0.30;;;;;;;25.25;37.20;99652.41;5049115;28;20037;-71
2022/06/11 01:00:45;;;;;;;0.20;0.20;;;;;;;25.28;37.35;99650.00;5052581;28;20037;-72
2022/06/11 01:03:14;;;;;;;0.30;0.30;;;;;;;25.25;37.11;99651.59;5053900;28;20037;-71
2022/06/11 01:05:45;;;;;;;0.77;0.45;;;;;;;25.27;37.04;99648.41;5050617;28;20128;-71
2022/06/11 01:08:10;;;;;;;0.30;0.28;;;;;;;25.25;36.97;99649.59;5051989;28;20132;-72
2022/06/11 01:10:59;;;;;;;0.60;0.30;;;;;;;25.24;37.25;99650.81;5050507;28;20116;-71
2022/06/11 01:14:12;;;;;;;0.32;0.30;;;;;;;25.23;37.19;99649.22;5047273;28;20512;-71
2022/06/11 01:16:46;;;;;;;0.25;0.25;;;;;;;25.23;37.08;99652.00;4979896;28;20050;-71
2022/06/11 01:19:29;;;;;;;0.40;0.32;;;;;;;25.21;37.12;99651.59;4980022;28;20042;-70
2022/06/11 01:22:17;;;;;;;0.30;0.30;;;;;;;25.19;37.14;99654.00;4977473;28;20491;-70
2022/06/11 01:25:12;;;;;;;0.20;0.20;;;;;;;25.18;37.11;99658.00;4972185;28;20113;-71
2022/06/11 01:28:02;;;;;;;0.28;0.28;;;;;;;25.19;37.23;99658.81;4967291;28;20678;-71
2022/06/11 01:30:39;;;;;;;0.50;0.35;;;;;;;25.18;37.61;99662.81;4978388;28;20133;-71
2022/06/11 01:33:20;;;;;;;0.20;0.20;;;;;;;25.17;37.33;99658.41;4984574;28;20061;-71
2022/06/11 01:36:03;;;;;;;0.73;0.30;;;;;;;25.15;37.44;99658.81;4988494;28;20137;-68
2022/06/11 01:38:43;;;;;;;0.60;0.40;;;;;;;25.15;37.59;99664.41;4990260;28;20446;-68
2022/06/11 01:41:29;;;;;;;0.50;0.32;;;;;;;25.15;37.49;99664.41;4977840;28;20418;-69
2022/06/11 01:44:00;;;;;;;0.65;0.50;;;;;;;25.14;37.31;99657.19;4974395;28;20570;-69
2022/06/11 01:46:33;;;;;;;0.45;0.25;;;;;;;25.15;37.52;99663.63;4963491;28;20385;-69
2022/06/11 01:49:21;;;;;;;1.05;0.40;;;;;;;25.12;37.38;99670.78;5059203;28;20470;-69
2022/06/11 01:51:52;;;;;;;0.20;0.20;;;;;;;25.13;37.39;99674.38;5045171;28;20052;-70
2022/06/11 01:54:42;;;;;;;0.50;0.30;;;;;;;25.12;37.43;99675.59;5048336;28;20501;-70
2022/06/11 01:57:13;;;;;;;0.52;0.28;;;;;;;25.10;37.55;99672.41;5059587;28;20040;-70
2022/06/11 01:59:48;;;;;;;0.52;0.30;;;;;;;25.09;37.41;99671.59;5054092;28;20086;-70
2022/06/11 02:02:16;;;;;;;0.40;0.30;;;;;;;25.10;37.55;99673.19;5042137;28;20048;-70
2022/06/11 02:04:48;;;;;;;0.38;0.38;;;;;;;25.09;37.73;99677.19;5066172;28;20444;-70
2022/06/11 02:07:38;;;;;;;0.73;0.30;;;;;;;25.06;37.68;99683.56;5064277;28;20044;-71
2022/06/11 02:10:08;;;;;;;0.30;0.30;;;;;;;25.08;37.80;99677.59;5050747;28;20037;-71
2022/06/11 02:13:14;;;;;;;0.43;0.20;;;;;;;25.07;37.80;99684.38;5049888;28;20060;-71
2022/06/11 02:15:48;;;;;;;0.50;0.40;;;;;;;25.09;37.75;99694.00;5039681;28;20269;-71
2022/06/11 02:18:17;;;;;;;0.30;0.20;;;;;;;25.07;37.76;99687.16;5032132;28;20054;-71
2022/06/11 02:21:00;;;;;;;0.20;0.20;;;;;;;25.06;37.79;99694.75;5058034;28;20047;-71
2022/06/11 02:23:40;;;;;;;0.38;0.30;;;;;;;25.04;37.68;99694.38;5060395;28;20151;-71
2022/06/11 02:26:12;;;;;;;0.52;0.30;;;;;;;25.05;37.89;99690.38;5060237;28;20048;-71
2022/06/11 02:28:42;;;;;;;0.57;0.40;;;;;;;25.05;37.75;99689.56;5047551;28;20056;-71
2022/06/11 02:31:11;;;;;;;0.65;0.40;;;;;;;25.02;37.78;99691.16;5054153;28;20075;-71
2022/06/11 02:33:39;;;;;;;0.55;0.40;;;;;;;25.03;37.89;99694.75;5068230;28;20047;-71
2022/06/11 02:36:19;;;;;;;0.45;0.28;;;;;;;25.02;37.96;99681.94;5059856;28;20489;-71
2022/06/11 02:38:45;;;;;;;0.40;0.30;;;;;;;24.99;37.93;99691.94;5037296;28;20060;-71
2022/06/11 02:41:15;;;;;;;0.50;0.40;;;;;;;24.99;37.92;99692.72;5038404;28;20040;-72
2022/06/11 02:43:40;;;;;;;0.30;0.30;;;;;;;24.99;37.89;99695.53;5053410;28;20053;-70
2022/06/11 02:48:52;;;;;;;0.70;0.38;;;;;;;24.99;37.84;99701.13;5062838;28;20048;-70
2022/06/11 02:51:20;;;;;;;0.60;0.40;;;;;;;24.99;37.70;99698.31;5055841;28;20049;-70
2022/06/11 02:53:45;;;;;;;0.30;0.20;;;;;;;24.98;38.13;99698.72;5048547;28;20060;-70
2022/06/11 02:56:13;;;;;;;0.38;0.30;;;;;;;24.97;38.08;99697.13;5052075;28;20041;-70
2022/06/11 02:58:39;;;;;;;0.30;0.30;;;;;;;24.99;37.80;99711.50;5048858;28;20068;-70
2022/06/11 03:01:05;;;;;;;0.20;0.20;;;;;;;24.98;38.27;99710.72;5050703;28;20037;-70
2022/06/11 03:03:31;;;;;;;0.30;0.20;;;;;;;24.98;38.12;99705.13;5050955;28;20037;-70
2022/06/11 03:05:58;;;;;;;0.28;0.20;;;;;;;24.97;38.39;99702.72;5055927;28;20052;-70
2022/06/11 03:08:23;;;;;;;0.40;0.30;;;;;;;24.97;38.50;99716.72;5051967;28;20044;-70
2022/06/11 03:10:54;;;;;;;0.35;0.30;;;;;;;24.94;38.40;99709.91;5050975;28;20041;-70
2022/06/11 03:13:21;;;;;;;0.38;0.35;;;;;;;24.94;38.36;99711.91;5053003;28;20517;-70
2022/06/11 03:15:47;;;;;;;0.35;0.30;;;;;;;24.94;38.24;99721.13;5053298;28;20040;-70
2022/06/11 03:18:13;;;;;;;0.52;0.30;;;;;;;24.90;38.47;99711.91;5060123;28;20085;-69
2022/06/11 03:20:39;;;;;;;0.50;0.40;;;;;;;24.91;38.53;99716.28;5050037;28;20040;-70
2022/06/11 03:23:05;;;;;;;0.47;0.40;;;;;;;24.91;38.48;99718.28;5069940;28;20178;-70
2022/06/11 03:25:31;;;;;;;0.28;0.20;;;;;;;24.92;38.56;99722.69;5053249;28;20143;-70
2022/06/11 03:27:56;;;;;;;0.40;0.30;;;;;;;24.91;38.18;99726.69;5057018;28;20052;-70
2022/06/11 03:30:21;;;;;;;0.30;0.20;;;;;;;24.91;38.29;99729.47;5038239;28;20199;-70
2022/06/11 03:32:47;;;;;;;0.63;0.30;;;;;;;24.91;38.44;99730.28;5052541;28;20076;-69
2022/06/11 03:35:13;;;;;;;0.47;0.35;;;;;;;24.91;38.62;99727.50;5046717;28;20484;-70
2022/06/11 03:37:39;;;;;;;0.30;0.25;;;;;;;24.92;38.73;99728.28;5049029;28;20037;-70
2022/06/11 03:40:05;;;;;;;0.47;0.38;;;;;;;24.92;38.57;99728.28;5045997;28;20120;-69
2022/06/11 03:42:31;;;;;;;0.30;0.30;;;;;;;24.91;38.52;99727.50;5046835;28;20185;-70
2022/06/11 03:44:56;;;;;;;0.60;0.30;;;;;;;24.90;38.80;99730.69;5048151;28;20452;-70
2022/06/11 03:47:22;;;;;;;0.40;0.30;;;;;;;24.90;38.68;99733.47;5036826;28;20063;-69
2022/06/11 03:49:48;;;;;;;0.40;0.30;;;;;;;24.86;38.65;99735.47;5053741;28;20420;-70
2022/06/11 03:52:13;;;;;;;0.30;0.30;;;;;;;24.88;38.24;99747.06;5048817;28;20417;-70
2022/06/11 03:54:39;;;;;;;0.50;0.38;;;;;;;24.89;38.52;99743.88;5053354;28;20037;-70
2022/06/11 03:57:05;;;;;;;0.40;0.28;;;;;;;24.87;38.42;99737.88;5049573;28;20068;-70
2022/06/11 03:59:31;;;;;;;0.25;0.22;;;;;;;24.87;38.18;99734.28;5060030;28;20056;-70
2022/06/11 04:01:57;;;;;;;0.47;0.40;;;;;;;24.87;38.39;99748.28;5051922;28;20056;-70
2022/06/11 04:04:22;;;;;;;0.43;0.30;;;;;;;24.87;38.60;99745.47;5052578;28;20052;-70
2022/06/11 04:06:56;;;;;;;0.85;0.40;;;;;;;24.87;38.60;99745.47;5050275;28;20211;-70
2022/06/11 04:09:31;;;;;;;0.32;0.30;;;;;;;24.87;38.59;99756.66;5047236;28;20444;-70
2022/06/11 04:11:57;;;;;;;0.35;0.30;;;;;;;24.83;38.58;99747.44;5056169;28;20049;-70
2022/06/11 04:14:22;;;;;;;0.30;0.30;;;;;;;24.83;38.63;99741.84;5048420;28;20405;-70
2022/06/11 04:16:55;;;;;;;0.20;0.20;;;;;;;24.84;38.90;99749.03;5037940;28;20106;-70
2022/06/11 04:19:25;;;;;;;0.40;0.40;;;;;;;24.84;38.64;99749.03;5048035;28;20040;-70
2022/06/11 04:21:52;;;;;;;0.55;0.40;;;;;;;24.85;38.74;99756.25;5058337;28;20057;-69
2022/06/11 04:24:18;;;;;;;0.50;0.40;;;;;;;24.86;38.49;99760.63;5055903;28;20409;-69
2022/06/11 04:26:46;;;;;;;0.45;0.30;;;;;;;24.85;38.73;99761.84;5048429;28;20052;-69
2022/06/11 04:29:16;;;;;;;0.93;0.30;;;;;;;24.87;38.68;99760.25;5054574;28;20189;-69
2022/06/11 04:31:43;;;;;;;0.73;0.40;;;;;;;24.86;38.81;99769.03;5049953;28;20045;-69
2022/06/11 04:34:13;;;;;;;0.47;0.38;;;;;;;24.84;39.00;99771.44;5060035;28;20403;-70
2022/06/11 04:36:40;;;;;;;0.75;0.45;;;;;;;24.84;39.06;99772.22;5058028;28;20049;-70
2022/06/11 04:39:07;;;;;;;7.10;0.60;;;;;;;24.85;39.10;99771.03;5052587;28;20049;-70
2022/06/11 04:41:33;;;;;;;0.35;0.35;;;;;;;24.86;39.15;99766.22;5032788;28;20119;-70
2022/06/11 04:43:58;;;;;;;0.60;0.43;;;;;;;24.84;39.04;99771.44;5050040;28;20519;-70
2022/06/11 04:46:25;;;;;;;0.40;0.40;;;;;;;24.84;39.27;99771.44;5033272;28;20040;-70
2022/06/11 04:48:51;;;;;;;0.32;0.32;;;;;;;24.85;39.20;99767.44;5051715;28;20037;-69
2022/06/11 04:51:16;;;;;;;0.32;0.30;;;;;;;24.85;39.41;99767.44;5047248;28;20399;-70
2022/06/11 04:53:44;;;;;;;0.30;0.30;;;;;;;24.84;39.49;99772.22;5051224;28;20444;-70
2022/06/11 04:56:12;;;;;;;0.52;0.43;;;;;;;24.83;39.58;99769.84;5047190;28;20033;-71
2022/06/11 04:58:37;;;;;;;0.82;0.43;;;;;;;24.83;39.47;99773.44;5053396;28;20032;-71
2022/06/11 05:01:03;;;;;;;0.52;0.40;;;;;;;24.84;39.49;99772.22;5056722;28;20452;-72
2022/06/11 05:03:29;;;;;;;0.85;0.52;;;;;;;24.85;39.53;99779.44;5057568;28;20072;-72
2022/06/11 05:05:54;;;;;;;0.55;0.32;;;;;;;24.87;39.49;99781.84;5054775;28;20064;-72
2022/06/11 05:08:20;;;;;;;0.77;0.47;;;;;;;24.86;39.64;99783.84;5045914;28;20049;-71
2022/06/11 05:10:45;;;;;;;0.70;0.50;;;;;;;24.88;39.71;99786.25;5059004;28;20470;-71
2022/06/11 05:13:12;;;;;;;0.68;0.40;;;;;;;24.90;39.87;99781.06;5070188;28;20557;-71
2022/06/11 05:15:42;;;;;;;0.45;0.40;;;;;;;24.88;39.82;99789.84;5054625;28;20447;-71
2022/06/11 05:18:08;;;;;;;0.57;0.47;;;;;;;24.91;39.56;99785.44;5058789;28;20452;-71
2022/06/11 05:20:37;;;;;;;0.50;0.40;;;;;;;24.90;39.70;99790.25;5060653;28;20059;-71
2022/06/11 05:23:03;;;;;;;0.75;0.60;;;;;;;24.91;39.44;99791.03;5067931;28;20045;-72
2022/06/11 05:25:29;;;;;;;0.60;0.50;;;;;;;24.91;39.47;99791.03;5063215;28;20086;-71
2022/06/11 05:27:55;;;;;;;0.32;0.30;;;;;;;24.91;39.66;99788.25;5050771;28;20041;-71
2022/06/11 05:30:24;;;;;;;0.50;0.30;;;;;;;24.92;39.64;99785.06;5047776;28;20049;-71
2022/06/11 05:32:50;;;;;;;0.50;0.30;;;;;;;24.93;39.64;99778.28;5053697;28;20048;-70
2022/06/11 05:35:23;;;;;;;0.95;0.50;;;;;;;24.93;39.62;99781.09;5046057;28;20414;-70
2022/06/11 05:37:51;;;;;;;0.45;0.30;;;;;;;24.94;39.86;99787.47;5046010;28;20045;-70
2022/06/11 05:40:20;;;;;;;0.43;0.40;;;;;;;24.95;39.74;99792.69;5050012;28;20044;-70
2022/06/11 05:42:49;;;;;;;0.30;0.30;;;;;;;24.97;39.93;99795.88;5048244;28;20041;-71
2022/06/11 05:45:21;;;;;;;0.52;0.40;;;;;;;24.98;39.72;99789.06;5044807;28;20037;-71
2022/06/11 05:47:49;;;;;;;0.27;0.27;;;;;;;24.99;39.68;99790.66;5055785;28;20335;-71
2022/06/11 05:50:18;;;;;;;0.60;0.40;;;;;;;24.98;39.93;99791.88;5038917;28;20347;-71
2022/06/11 05:52:45;;;;;;;0.32;0.32;;;;;;;24.99;39.87;99787.88;5060367;28;20080;-71
2022/06/11 05:55:17;;;;;;;0.43;0.40;;;;;;;25.00;39.81;99791.47;5053577;28;20098;-71
2022/06/11 05:57:45;;;;;;;0.80;0.50;;;;;;;25.02;39.67;99788.31;5043336;28;20045;-70
2022/06/11 06:00:14;;;;;;;0.50;0.30;;;;;;;25.01;39.62;99789.50;5047613;28;20060;-70
2022/06/11 06:02:40;;;;;;;0.52;0.40;;;;;;;25.18;39.53;99794.38;5050354;28;20080;-70
2022/06/11 06:05:08;;;;;;;0.43;0.40;;;;;;;25.34;39.09;99794.81;5051731;28;20118;-70
2022/06/11 06:07:33;;;;;;;0.70;0.50;;;;;;;25.41;38.88;99806.03;5050113;28;20045;-70
2022/06/11 06:09:59;;;;;;;0.60;0.40;;;;;;;25.50;38.87;99809.25;5050364;28;20110;-70
2022/06/11 06:12:24;;;;;;;0.57;0.40;;;;;;;25.54;38.65;99806.47;5041349;28;20040;-70
2022/06/11 06:14:50;;;;;;;0.50;0.40;;;;;;;25.57;38.62;99807.66;5056443;28;20070;-71
2022/06/11 06:17:15;;;;;;;0.38;0.30;;;;;;;25.59;38.65;99811.69;5055418;28;20375;-71
2022/06/11 06:19:41;;;;;;;0.30;0.30;;;;;;;25.61;38.72;99814.06;5055447;28;20053;-71
2022/06/11 06:22:06;;;;;;;0.60;0.45;;;;;;;25.64;38.71;99805.66;5059810;28;20047;-71
2022/06/11 06:24:33;;;;;;;1.10;0.40;;;;;;;25.64;38.35;99800.06;5050246;28;20044;-70
2022/06/11 06:26:59;;;;;;;0.52;0.40;;;;;;;25.68;38.38;99797.28;5050762;28;20497;-71
2022/06/11 06:29:25;;;;;;;0.50;0.40;;;;;;;25.69;38.72;99805.28;5055605;28;20132;-71
2022/06/11 06:31:50;;;;;;;0.57;0.40;;;;;;;25.69;38.66;99805.28;5056605;28;20120;-71
2022/06/11 06:34:16;;;;;;;1.02;0.50;;;;;;;25.73;38.76;99808.91;5051473;28;20061;-71
2022/06/11 06:36:41;;;;;;;0.40;0.30;;;;;;;25.71;38.87;99802.88;5048673;28;20116;-71
2022/06/11 06:39:07;;;;;;;0.20;0.20;;;;;;;25.67;38.73;99798.47;5050642;28;20045;-70
2022/06/11 06:41:32;;;;;;;0.30;0.30;;;;;;;25.66;38.74;99806.09;5062343;28;20427;-70
2022/06/11 06:43:58;;;;;;;0.88;0.50;;;;;;;25.65;38.67;99804.47;5068204;28;20199;-71
2022/06/11 06:46:23;;;;;;;0.47;0.40;;;;;;;25.70;38.52;99800.47;5063194;28;20036;-71
2022/06/11 06:48:49;;;;;;;0.43;0.40;;;;;;;25.70;38.75;99801.25;5063221;28;20078;-71
2022/06/11 06:51:15;;;;;;;0.40;0.38;;;;;;;25.66;38.70;99792.06;5030069;28;20049;-71
2022/06/11 06:53:42;;;;;;;0.63;0.43;;;;;;;25.73;38.96;99797.72;5057161;28;20408;-71
2022/06/11 06:56:08;;;;;;;0.47;0.30;;;;;;;25.73;38.79;99791.31;5039190;28;20037;-71
2022/06/11 06:58:34;;;;;;;0.30;0.30;;;;;;;25.74;38.72;99790.91;5056441;28;20033;-71
2022/06/11 07:01:00;;;;;;;0.80;0.47;;;;;;;25.75;38.76;99789.69;5058248;28;20049;-71
2022/06/11 07:03:26;;;;;;;0.52;0.40;;;;;;;25.76;38.80;99799.69;5048712;28;20110;-70
2022/06/11 07:05:51;;;;;;;0.52;0.40;;;;;;;25.81;38.74;99792.91;5057269;28;20040;-71
2022/06/11 07:08:18;;;;;;;0.68;0.43;;;;;;;25.83;38.86;99789.69;5048885;28;20296;-71
2022/06/11 07:10:52;;;;;;;0.52;0.40;;;;;;;25.83;38.92;99790.50;5048777;28;20033;-71
2022/06/11 07:13:19;;;;;;;0.75;0.47;;;;;;;25.82;38.98;99793.72;5054792;28;20040;-71
2022/06/11 07:15:47;;;;;;;0.95;0.60;;;;;;;25.83;38.73;99790.50;5055892;28;20041;-71
2022/06/11 07:18:19;;;;;;;0.80;0.40;;;;;;;25.82;39.01;99786.09;5031535;28;20103;-71
2022/06/11 07:20:46;;;;;;;0.68;0.30;;;;;;;25.83;38.64;99786.91;5046742;28;20068;-71
2022/06/11 07:23:23;;;;;;;0.70;0.50;;;;;;;25.84;38.82;99782.88;5043930;28;20037;-71
2022/06/11 07:25:52;;;;;;;0.68;0.50;;;;;;;25.88;38.75;99784.50;5029914;28;20497;-71
2022/06/11 07:28:25;;;;;;;0.30;0.30;;;;;;;25.86;38.87;99777.69;5033647;28;20528;-71
2022/06/11 07:30:51;;;;;;;0.73;0.40;;;;;;;25.85;38.82;99773.28;5041861;28;20521;-70
2022/06/11 07:33:21;;;;;;;0.30;0.30;;;;;;;25.83;39.03;99770.09;5034652;28;20622;-70
2022/06/11 07:35:48;;;;;;;0.45;0.40;;;;;;;25.84;38.81;99768.88;5030340;28;20049;-70
2022/06/11 07:38:14;;;;;;;0.60;0.40;;;;;;;25.89;39.01;99772.09;5044753;28;20055;-70
2022/06/11 07:40:40;;;;;;;0.82;0.50;;;;;;;25.90;38.98;99770.09;5033076;28;20520;-70
2022/06/11 07:43:06;;;;;;;0.55;0.40;;;;;;;25.89;38.84;99768.50;5041781;28;20037;-70
2022/06/11 07:45:33;;;;;;;0.70;0.50;;;;;;;25.89;38.92;99765.69;5047875;28;20052;-70
2022/06/11 07:47:59;;;;;;;0.85;0.40;;;;;;;25.91;38.70;99758.47;5041721;28;20038;-70
2022/06/11 07:50:29;;;;;;;0.30;0.30;;;;;;;25.92;38.65;99759.25;5040914;28;20056;-70
2022/06/11 07:52:55;;;;;;;0.40;0.40;;;;;;;25.94;38.81;99765.28;5040813;28;20409;-70
2022/06/11 07:55:22;;;;;;;0.35;0.30;;;;;;;25.93;38.48;99764.50;5041843;28;20048;-70
2022/06/11 07:57:47;;;;;;;0.85;0.50;;;;;;;25.94;38.52;99763.28;5034110;28;20053;-71
2022/06/11 08:00:26;;;;;;;0.75;0.30;;;;;;;25.99;38.32;99756.47;5035080;28;20064;-72
2022/06/11 08:02:52;;;;;;;0.80;0.50;;;;;;;25.99;38.48;99762.06;5035844;28;20061;-72
2022/06/11 08:05:17;;;;;;;0.50;0.38;;;;;;;25.95;38.56;99753.66;5040968;28;20053;-72
2022/06/11 08:07:43;;;;;;;0.80;0.40;;;;;;;25.96;38.66;99755.28;5043825;28;20127;-72
2022/06/11 08:10:10;;;;;;;0.47;0.40;;;;;;;25.98;38.83;99754.84;5030056;28;20095;-72
2022/06/11 08:12:35;;;;;;;0.38;0.30;;;;;;;25.97;38.80;99742.84;5026726;28;20586;-71
2022/06/11 08:15:01;;;;;;;0.68;0.40;;;;;;;25.99;38.46;99745.25;5028482;28;20065;-71
2022/06/11 08:17:28;;;;;;;0.73;0.40;;;;;;;25.98;38.65;99738.03;5031018;28;20041;-72
2022/06/11 08:19:54;;;;;;;0.55;0.40;;;;;;;26.00;38.71;99744.03;5022152;28;20421;-72
2022/06/11 08:22:21;;;;;;;0.35;0.35;;;;;;;26.02;38.56;99741.66;5008927;28;20076;-72
2022/06/11 08:24:47;;;;;;;0.30;0.30;;;;;;;26.01;38.39;99735.25;5023941;28;20530;-72
2022/06/11 08:27:13;;;;;;;0.63;0.50;;;;;;;26.02;38.86;99745.25;5040859;28;20048;-72
2022/06/11 08:29:38;;;;;;;0.63;0.40;;;;;;;26.02;38.80;99731.25;5036079;28;20041;-72
2022/06/11 08:32:05;;;;;;;0.82;0.43;;;;;;;26.02;38.68;99730.44;5028724;28;20081;-72
2022/06/11 08:34:35;;;;;;;0.52;0.40;;;;;;;26.01;38.65;99731.66;5042733;28;20151;-72
2022/06/11 08:37:01;;;;;;;0.60;0.43;;;;;;;26.01;38.76;99724.03;5034478;28;20053;-72
2022/06/11 08:39:26;;;;;;;0.38;0.30;;;;;;;26.02;38.77;99724.84;5030244;28;20138;-72
2022/06/11 08:41:51;;;;;;;0.60;0.40;;;;;;;26.09;38.32;99724.03;5028811;28;20045;-72
2022/06/11 08:44:17;;;;;;;0.50;0.30;;;;;;;26.09;38.75;99733.22;5028786;28;20048;-72
2022/06/11 08:46:45;;;;;;;0.38;0.30;;;;;;;26.10;38.74;99734.03;5029857;28;20045;-72
2022/06/11 08:49:44;;;;;;;0.52;0.40;;;;;;;26.10;38.72;99726.41;5039495;28;20061;-72
2022/06/11 08:52:15;;;;;;;0.20;0.20;;;;;;;26.11;38.55;99718.81;5037629;28;20187;-71
2022/06/11 08:54:43;;;;;;;0.40;0.40;;;;;;;26.12;38.54;99724.00;5028526;28;20057;-71
2022/06/11 08:57:24;;;;;;;0.73;0.30;;;;;;;26.14;38.96;99726.41;5027537;28;20580;-72
2022/06/11 09:00:17;;;;;;;0.65;0.45;;;;;;;26.13;38.61;99711.56;5024889;28;20058;-72
2022/06/11 09:03:17;;;;;;;0.35;0.30;;;;;;;26.12;38.64;99717.59;5033234;28;20057;-72
2022/06/11 09:05:48;;;;;;;0.40;0.40;;;;;;;26.15;38.29;99711.16;5037806;28;20510;-72
2022/06/11 09:08:32;;;;;;;0.60;0.40;;;;;;;26.16;38.37;99718.41;5039870;28;20622;-70
2022/06/11 09:11:39;;;;;;;0.70;0.40;;;;;;;26.10;38.40;99712.41;5041263;28;20103;-70
2022/06/11 09:14:27;;;;;;;0.30;0.30;;;;;;;26.11;38.77;99711.19;5018500;28;20083;-70
2022/06/11 09:16:59;;;;;;;0.80;0.50;;;;;;;26.11;38.70;99705.59;5042554;28;20044;-69
2022/06/11 09:19:27;;;;;;;0.50;0.40;;;;;;;26.14;38.35;99710.38;5040083;28;20037;-69
2022/06/11 09:22:16;;;;;;;0.60;0.32;;;;;;;26.14;38.27;99710.38;5046886;28;20091;-71
2022/06/11 09:24:44;;;;;;;0.45;0.40;;;;;;;26.17;38.35;99697.56;5037788;28;20056;-71
2022/06/11 09:27:13;;;;;;;0.38;0.30;;;;;;;26.15;38.68;99709.19;5049610;28;20501;-72
2022/06/11 09:30:01;;;;;;;0.30;0.30;;;;;;;26.16;38.60;99696.78;5039966;28;20129;-72
2022/06/11 09:32:45;;;;;;;0.55;0.50;;;;;;;26.19;38.66;99693.13;5021459;28;20421;-72
2022/06/11 09:35:23;;;;;;;0.60;0.40;;;;;;;26.20;38.24;99700.34;5041603;28;20118;-72
2022/06/11 09:37:54;;;;;;;0.57;0.40;;;;;;;26.20;38.42;99693.94;5049359;28;20084;-72
2022/06/11 09:40:42;;;;;;;0.55;0.50;;;;;;;26.19;38.61;99698.75;5046158;28;20084;-71
2022/06/11 09:43:29;;;;;;;0.45;0.38;;;;;;;26.21;38.41;99692.72;5045245;28;20041;-72
2022/06/11 09:46:18;;;;;;;0.45;0.40;;;;;;;26.21;38.49;99690.72;5027716;28;20034;-72
2022/06/11 09:48:56;;;;;;;0.80;0.43;;;;;;;26.22;38.73;99686.75;5006058;28;20510;-72
2022/06/11 09:51:43;;;;;;;0.57;0.40;;;;;;;26.22;38.74;99681.13;5034149;28;20164;-72
2022/06/11 09:54:23;;;;;;;0.43;0.30;;;;;;;26.25;38.49;99685.13;5028349;28;20044;-72
2022/06/11 09:57:04;;;;;;;0.80;0.40;;;;;;;26.23;38.55;99682.72;5027362;28;20045;-72
2022/06/11 09:59:35;;;;;;;0.30;0.30;;;;;;;26.25;38.78;99680.31;5027578;28;20099;-72
2022/06/11 10:02:07;;;;;;;0.33;0.33;;;;;;;26.25;38.72;99688.72;5005438;28;20049;-72
2022/06/11 10:04:40;;;;;;;0.40;0.30;;;;;;;26.25;38.61;99685.91;5038126;28;20063;-72
2022/06/11 10:07:13;;;;;;;0.52;0.45;;;;;;;26.26;38.41;99681.09;5034975;28;20049;-70
2022/06/11 10:09:45;;;;;;;0.35;0.32;;;;;;;26.27;38.61;99680.69;5026115;28;20049;-71
2022/06/11 10:12:18;;;;;;;0.30;0.28;;;;;;;26.31;38.43;99678.69;5030307;28;20045;-71
2022/06/11 10:15:01;;;;;;;0.38;0.38;;;;;;;26.29;38.48;99669.06;5036886;28;20041;-70
2022/06/11 10:17:37;;;;;;;0.55;0.30;;;;;;;26.30;38.17;99671.50;5030910;28;20310;-71
2022/06/11 10:20:31;;;;;;;0.70;0.45;;;;;;;26.31;38.43;99673.09;5029174;28;20094;-72
2022/06/11 10:23:14;;;;;;;1.02;0.50;;;;;;;26.30;38.39;99671.50;5020357;28;20091;-72
2022/06/11 10:26:01;;;;;;;0.77;0.45;;;;;;;26.28;38.42;99665.47;5027013;28;20099;-72
2022/06/11 10:28:32;;;;;;;0.50;0.30;;;;;;;26.23;38.26;99663.09;5036490;28;20507;-72
2022/06/11 10:31:06;;;;;;;0.52;0.40;;;;;;;26.25;38.17;99660.69;5029598;28;20049;-72
2022/06/11 10:34:10;;;;;;;1.05;0.50;;;;;;;26.24;38.58;99663.91;5026649;28;20141;-72
2022/06/11 10:36:42;;;;;;;0.40;0.40;;;;;;;26.23;38.48;99656.69;5024995;28;20041;-72
2022/06/11 10:39:22;;;;;;;0.30;0.30;;;;;;;26.22;38.46;99655.91;5037589;28;20528;-72
2022/06/11 10:41:58;;;;;;;0.60;0.40;;;;;;;26.24;38.42;99658.28;5029626;28;20578;-72
2022/06/11 10:44:26;;;;;;;0.75;0.52;;;;;;;26.27;38.45;99658.25;5026345;28;20037;-72
2022/06/11 10:46:52;;;;;;;0.77;0.50;;;;;;;26.30;38.55;99649.06;5031169;28;20053;-72
2022/06/11 10:49:22;;;;;;;0.30;0.30;;;;;;;26.30;38.54;99643.44;5041611;28;20041;-72
2022/06/11 10:51:57;;;;;;;0.73;0.50;;;;;;;26.30;38.28;99643.44;5034626;28;20424;-72
2022/06/11 10:54:25;;;;;;;1.27;0.50;;;;;;;26.32;38.14;99641.03;5026247;28;20088;-72
2022/06/11 10:57:00;;;;;;;0.40;0.35;;;;;;;26.31;38.35;99639.44;5028408;28;20041;-72
2022/06/11 10:59:43;;;;;;;0.55;0.40;;;;;;;26.32;38.20;99649.44;5027844;28;20045;-72
2022/06/11 11:02:23;;;;;;;0.50;0.30;;;;;;;26.29;38.59;99632.59;5028635;28;20042;-72
2022/06/11 11:04:56;;;;;;;0.55;0.38;;;;;;;26.27;38.46;99641.44;5004665;28;20053;-71
2022/06/11 11:07:24;;;;;;;0.40;0.40;;;;;;;26.30;38.34;99623.00;5035164;28;20456;-71
2022/06/11 11:09:50;;;;;;;0.98;0.57;;;;;;;26.29;38.27;99633.44;5029563;28;20575;-71
2022/06/11 11:12:32;;;;;;;0.65;0.40;;;;;;;26.29;38.41;99627.81;5040065;28;20565;-73
2022/06/11 11:15:14;;;;;;;0.45;0.38;;;;;;;26.31;38.37;99624.59;5045800;28;20068;-72
2022/06/11 11:17:49;;;;;;;0.40;0.40;;;;;;;26.32;38.68;99627.00;5035483;28;20069;-71
2022/06/11 11:20:29;;;;;;;0.60;0.40;;;;;;;26.40;38.48;99618.59;5046323;28;20105;-70
2022/06/11 11:22:59;;;;;;;0.65;0.50;;;;;;;26.40;38.68;99612.97;5041248;28;20045;-70
2022/06/11 11:25:52;;;;;;;0.50;0.40;;;;;;;26.37;38.48;99608.97;5032317;28;20107;-70
2022/06/11 11:28:20;;;;;;;0.82;0.55;;;;;;;26.39;38.55;99614.16;5048511;28;20044;-70
2022/06/11 11:30:46;;;;;;;1.40;0.57;;;;;;;26.36;38.73;99615.75;5037734;28;20049;-70
2022/06/11 11:33:22;;;;;;;0.50;0.38;;;;;;;26.33;38.85;99603.34;5052134;28;20086;-70
2022/06/11 11:35:48;;;;;;;0.70;0.38;;;;;;;26.33;38.90;99608.97;5037947;28;20048;-69
2022/06/11 11:38:20;;;;;;;0.40;0.40;;;;;;;26.33;38.53;99600.53;5049181;28;20052;-69
2022/06/11 11:40:53;;;;;;;0.57;0.40;;;;;;;26.29;38.69;99596.97;5046754;28;20098;-69
2022/06/11 11:43:21;;;;;;;0.65;0.50;;;;;;;26.31;38.99;99594.56;5038673;28;20052;-69
2022/06/11 11:45:53;;;;;;;0.60;0.50;;;;;;;26.34;38.85;99590.13;5046928;28;20063;-70
2022/06/11 11:48:24;;;;;;;0.93;0.50;;;;;;;26.34;38.74;99588.13;5053887;28;20048;-70
2022/06/11 11:50:55;;;;;;;0.73;0.43;;;;;;;26.42;38.68;99590.91;5026379;28;20156;-70
2022/06/11 11:53:26;;;;;;;0.52;0.40;;;;;;;26.44;39.26;99580.09;5040961;28;20060;-72
2022/06/11 11:56:00;;;;;;;0.30;0.30;;;;;;;26.49;39.24;99582.47;5037787;28;20122;-71